createdAt,value
2022-11-24T00:01:29.478Z,10.20
2022-11-24T00:03:59.992Z,9.92
2022-11-24T00:06:30.484Z,10.24
2022-11-24T00:09:00.259Z,10.32
2022-11-24T00:11:33.929Z,10.11
2022-11-24T00:14:03.436Z,10.32
2022-11-24T00:16:33.749Z,10.29
2022-11-24T00:19:05.479Z,10.36
2022-11-24T00:21:35.163Z,10.30
2022-11-24T00:24:03.890Z,10.15
2022-11-24T00:26:34.576Z,10.10
2022-11-24T00:29:07.647Z,10.31
2022-11-24T00:31:38.081Z,9.90
2022-11-24T00:34:09.151Z,10.01
2022-11-24T00:36:40.064Z,10.34
2022-11-24T00:39:12.177Z,10.24
2022-11-24T00:41:41.068Z,10.24
2022-11-24T00:44:10.266Z,10.26
2022-11-24T00:46:38.674Z,10.15
2022-11-24T00:49:07.548Z,10.22
2022-11-24T00:51:35.971Z,10.30
2022-11-24T00:54:06.384Z,10.48
2022-11-24T00:56:34.882Z,10.42
2022-11-24T00:59:03.500Z,10.41
2022-11-24T01:01:32.108Z,10.59
2022-11-24T01:04:02.596Z,10.01
2022-11-24T01:06:32.540Z,10.18
2022-11-24T01:09:01.335Z,10.43
2022-11-24T01:11:54.212Z,10.62
2022-11-24T01:14:25.054Z,10.63
2022-11-24T01:16:54.142Z,10.53
2022-11-24T01:19:23.500Z,10.58
2022-11-24T01:21:52.308Z,10.30
2022-11-24T01:24:21.065Z,10.56
2022-11-24T01:26:50.738Z,10.46
2022-11-24T01:29:19.397Z,10.65
2022-11-24T01:31:47.778Z,10.41
2022-11-24T01:34:16.366Z,10.64
2022-11-24T01:36:44.847Z,10.66
2022-11-24T01:39:14.380Z,10.40
2022-11-24T01:41:42.713Z,10.64
2022-11-24T01:44:24.486Z,10.57
2022-11-24T01:46:58.737Z,10.36
2022-11-24T01:49:40.514Z,10.58
2022-11-24T01:52:14.735Z,10.60
2022-11-24T01:54:47.444Z,10.60
2022-11-24T01:57:21.258Z,10.86
2022-11-24T01:59:53.868Z,10.78
2022-11-24T02:02:29.707Z,10.87
2022-11-24T02:05:04.483Z,10.36
2022-11-24T02:07:33.887Z,10.63
2022-11-24T02:10:09.022Z,10.58
2022-11-24T02:12:38.939Z,10.76
2022-11-24T02:15:11.859Z,10.63
2022-11-24T02:17:40.157Z,10.58
2022-11-24T02:20:11.687Z,10.52
2022-11-24T02:22:47.218Z,10.82
2022-11-24T02:25:25.010Z,10.73
2022-11-24T02:27:57.098Z,10.49
2022-11-24T02:30:25.791Z,10.61
2022-11-24T02:32:54.143Z,10.11
2022-11-24T02:35:22.856Z,10.36
2022-11-24T02:37:51.312Z,10.57
2022-11-24T02:40:25.074Z,10.67
2022-11-24T02:42:57.836Z,10.72
2022-11-24T02:45:27.801Z,10.77
2022-11-24T02:47:56.190Z,10.63
2022-11-24T02:50:24.784Z,10.72
2022-11-24T02:52:53.217Z,10.51
2022-11-24T02:55:21.970Z,9.82
2022-11-24T02:57:50.342Z,10.36
2022-11-24T03:00:20.988Z,10.23
2022-11-24T03:02:49.357Z,10.29
2022-11-24T03:05:18.235Z,9.96
2022-11-24T03:07:46.616Z,10.08
2022-11-24T03:10:15.434Z,10.42
2022-11-24T03:12:43.802Z,10.27
2022-11-24T03:15:12.545Z,10.59
2022-11-24T03:17:42.205Z,10.76
2022-11-24T03:20:12.127Z,10.80
2022-11-24T03:22:40.659Z,10.82
2022-11-24T03:25:10.027Z,10.93
2022-11-24T03:27:38.375Z,10.89
2022-11-24T03:30:08.714Z,11.12
2022-11-24T03:32:37.126Z,11.15
2022-11-24T03:35:07.920Z,11.30
2022-11-24T03:37:36.554Z,11.01
2022-11-24T03:40:06.076Z,11.19
2022-11-24T03:42:34.530Z,11.17
2022-11-24T03:45:30.027Z,11.02
2022-11-24T03:47:52.150Z,11.18
2022-11-24T03:50:22.113Z,11.25
2022-11-24T03:52:50.442Z,11.31
2022-11-24T03:55:19.025Z,11.19
2022-11-24T03:57:47.787Z,10.98
2022-11-24T04:00:17.554Z,11.11
2022-11-24T04:02:45.987Z,10.99
2022-11-24T04:05:15.509Z,11.14
2022-11-24T04:07:45.214Z,11.16
2022-11-24T04:10:14.319Z,11.02
2022-11-24T04:12:44.745Z,11.22
2022-11-24T04:15:15.492Z,11.07
2022-11-24T04:17:43.954Z,11.17
2022-11-24T04:20:13.797Z,11.34
2022-11-24T04:22:42.463Z,10.85
2022-11-24T04:25:13.027Z,10.91
2022-11-24T04:27:41.410Z,11.10
2022-11-24T04:30:11.218Z,11.24
2022-11-24T04:32:39.607Z,11.28
2022-11-24T04:35:08.987Z,11.28
2022-11-24T04:37:37.331Z,10.78
2022-11-24T04:40:07.496Z,10.92
2022-11-24T04:42:37.274Z,10.82
2022-11-24T04:45:07.242Z,10.54
2022-11-24T04:47:35.919Z,10.85
2022-11-24T04:50:07.673Z,10.97
2022-11-24T04:52:36.247Z,11.06
2022-11-24T04:55:05.079Z,11.09
2022-11-24T04:57:33.487Z,11.02
2022-11-24T05:00:04.090Z,10.68
2022-11-24T05:02:32.459Z,10.91
2022-11-24T05:05:01.327Z,11.07
2022-11-24T05:07:30.051Z,11.12
2022-11-24T05:10:16.382Z,11.09
2022-11-24T05:12:51.035Z,11.10
2022-11-24T05:15:21.380Z,10.92
2022-11-24T05:17:49.922Z,11.18
2022-11-24T05:20:19.335Z,10.97
2022-11-24T05:22:47.802Z,10.79
2022-11-24T05:25:16.710Z,11.06
2022-11-24T05:27:45.230Z,11.11
2022-11-24T05:30:14.939Z,11.20
2022-11-24T05:32:45.271Z,11.21
2022-11-24T05:35:15.626Z,11.23
2022-11-24T05:37:43.932Z,11.07
2022-11-24T05:40:12.740Z,11.18
2022-11-24T05:42:47.686Z,11.07
2022-11-24T05:45:19.145Z,11.16
2022-11-24T05:47:50.086Z,11.15
2022-11-24T05:50:21.217Z,11.12
2022-11-24T05:52:50.482Z,10.70
2022-11-24T05:55:20.536Z,11.14
2022-11-24T05:57:48.963Z,10.66
2022-11-24T06:00:20.187Z,10.94
2022-11-24T06:02:50.252Z,10.79
2022-11-24T06:05:19.095Z,10.78
2022-11-24T06:07:47.605Z,10.92
2022-11-24T06:10:16.917Z,10.65
2022-11-24T06:12:45.505Z,10.72
2022-11-24T06:15:14.821Z,10.87
2022-11-24T06:17:43.315Z,10.98
2022-11-24T06:20:13.645Z,10.88
2022-11-24T06:22:42.060Z,10.88
2022-11-24T06:25:11.083Z,11.07
2022-11-24T06:27:39.545Z,10.89
2022-11-24T06:30:09.392Z,10.64
2022-11-24T06:32:38.936Z,11.01
2022-11-24T06:35:08.103Z,10.92
2022-11-24T06:37:38.768Z,10.99
2022-11-24T06:40:09.978Z,11.14
2022-11-24T06:42:38.498Z,10.80
2022-11-24T06:45:09.533Z,10.57
2022-11-24T06:47:38.439Z,10.39
2022-11-24T06:50:09.192Z,10.84
2022-11-24T06:52:39.097Z,10.95
2022-11-24T06:55:08.937Z,10.75
2022-11-24T06:57:37.589Z,11.10
2022-11-24T07:00:08.285Z,11.12
2022-11-24T07:02:41.089Z,10.91
2022-11-24T07:05:13.128Z,11.14
2022-11-24T07:07:43.157Z,10.99
2022-11-24T07:10:12.038Z,10.75
2022-11-24T07:12:40.485Z,11.04
2022-11-24T07:15:10.231Z,11.15
2022-11-24T07:17:39.387Z,11.11
2022-11-24T07:20:09.993Z,10.93
2022-11-24T07:22:38.551Z,11.31
2022-11-24T07:25:10.332Z,11.14
2022-11-24T07:27:38.773Z,11.05
2022-11-24T07:30:09.022Z,11.06
2022-11-24T07:32:38.105Z,11.24
2022-11-24T07:35:07.333Z,10.88
2022-11-24T07:37:36.009Z,11.36
2022-11-24T07:40:04.768Z,10.47
2022-11-24T07:42:35.074Z,10.31
2022-11-24T07:45:03.727Z,10.59
2022-11-24T07:47:32.651Z,10.50
2022-11-24T07:50:01.079Z,10.69
2022-11-24T07:52:29.949Z,10.95
2022-11-24T07:54:58.412Z,10.87
2022-11-24T07:57:29.179Z,10.82
2022-11-24T07:59:59.158Z,10.83
2022-11-24T08:02:27.959Z,10.70
2022-11-24T08:04:56.479Z,10.39
2022-11-24T08:07:25.584Z,10.48
2022-11-24T08:09:54.063Z,10.69
2022-11-24T08:12:22.789Z,10.05
2022-11-24T08:14:51.800Z,10.19
2022-11-24T08:17:21.967Z,10.21
2022-11-24T08:19:50.378Z,10.45
2022-11-24T08:22:19.076Z,10.40
2022-11-24T08:24:48.913Z,10.42
2022-11-24T08:27:17.683Z,10.36
2022-11-24T08:29:46.837Z,9.96
2022-11-24T08:32:21.961Z,10.20
2022-11-24T08:34:59.524Z,10.14
2022-11-24T08:37:32.320Z,10.24
2022-11-24T08:40:00.988Z,10.07
2022-11-24T08:42:30.110Z,10.37
2022-11-24T08:44:59.201Z,10.33
2022-11-24T08:47:28.031Z,10.23
2022-11-24T08:49:57.857Z,9.44
2022-11-24T08:52:26.668Z,9.08
2022-11-24T08:54:55.061Z,9.33
2022-11-24T08:57:24.787Z,9.14
2022-11-24T08:59:53.319Z,9.59
2022-11-24T09:02:21.816Z,9.24
2022-11-24T09:04:51.351Z,9.20
2022-11-24T09:07:22.024Z,9.64
2022-11-24T09:09:51.399Z,9.84
2022-11-24T09:12:20.296Z,9.61
2022-11-24T09:14:49.514Z,9.93
2022-11-24T09:17:19.367Z,9.91
2022-11-24T09:19:48.549Z,9.82
2022-11-24T09:22:19.354Z,9.82
2022-11-24T09:24:49.754Z,10.03
2022-11-24T09:27:18.770Z,9.53
2022-11-24T09:29:47.760Z,9.53
2022-11-24T09:32:16.270Z,9.17
2022-11-24T09:34:45.157Z,8.98
2022-11-24T09:37:13.735Z,9.08
2022-11-24T09:39:42.562Z,9.29
2022-11-24T09:42:18.015Z,9.16
2022-11-24T09:45:11.042Z,9.34
2022-11-24T09:47:52.529Z,9.56
2022-11-24T09:50:23.919Z,9.73
2022-11-24T09:53:01.504Z,9.55
2022-11-24T09:55:39.742Z,9.68
2022-11-24T09:58:17.135Z,10.18
2022-11-24T10:00:47.899Z,10.14
2022-11-24T10:03:21.698Z,9.57
2022-11-24T10:05:52.354Z,9.39
2022-11-24T10:08:31.711Z,9.95
2022-11-24T10:11:02.286Z,9.49
2022-11-24T10:14:24.309Z,9.54
2022-11-24T10:16:58.774Z,9.15
2022-11-24T10:19:41.395Z,9.30
2022-11-24T10:22:26.143Z,8.95
2022-11-24T10:25:08.925Z,9.16
2022-11-24T10:27:42.925Z,9.56
2022-11-24T10:30:19.353Z,9.42
2022-11-24T10:32:50.232Z,9.87
2022-11-24T10:35:22.468Z,9.80
2022-11-24T10:37:59.350Z,10.27
2022-11-24T10:43:27.922Z,10.07
2022-11-24T10:46:07.444Z,10.68
2022-11-24T10:48:42.701Z,9.97
2022-11-24T10:51:38.132Z,10.29
2022-11-24T10:54:13.713Z,9.94
2022-11-24T10:56:42.751Z,10.16
2022-11-24T10:59:32.222Z,9.95
2022-11-24T11:02:02.730Z,10.16
2022-11-24T11:04:33.534Z,10.10
2022-11-24T11:07:10.567Z,10.06
2022-11-24T11:09:39.310Z,10.42
2022-11-24T11:12:36.300Z,10.58
2022-11-24T11:15:23.227Z,10.77
2022-11-24T11:17:57.496Z,10.66
2022-11-24T11:20:30.734Z,10.87
2022-11-24T11:23:02.220Z,10.49
2022-11-24T11:25:36.832Z,10.19
2022-11-24T11:28:26.727Z,10.51
2022-11-24T11:31:21.107Z,10.29
2022-11-24T11:34:06.978Z,10.15
2022-11-24T11:36:43.448Z,10.00
2022-11-24T11:39:24.210Z,9.95
2022-11-24T11:41:59.932Z,9.89
2022-11-24T11:44:38.475Z,10.15
2022-11-24T11:47:16.909Z,9.83
2022-11-24T11:49:49.630Z,9.59
2022-11-24T11:52:52.150Z,9.66
2022-11-24T11:55:50.205Z,10.27
2022-11-24T11:58:45.257Z,10.02
2022-11-24T12:01:30.199Z,9.90
2022-11-24T12:04:12.157Z,9.68
2022-11-24T12:06:57.699Z,9.66
2022-11-24T12:09:37.932Z,10.08
2022-11-24T12:12:27.114Z,9.95
2022-11-24T12:15:10.808Z,10.25
2022-11-24T12:17:44.774Z,10.46
2022-11-24T12:20:32.894Z,10.46
2022-11-24T12:23:11.402Z,10.58
2022-11-24T12:25:43.654Z,10.19
2022-11-24T12:28:26.843Z,10.42
2022-11-24T12:31:06.892Z,10.17
2022-11-24T12:34:01.345Z,9.92
2022-11-24T12:36:47.480Z,10.10
2022-11-24T12:39:26.738Z,9.87
2022-11-24T12:42:06.304Z,10.09
2022-11-24T12:44:57.921Z,9.80
2022-11-24T12:47:37.967Z,9.80
2022-11-24T12:50:12.724Z,9.83
2022-11-24T12:52:47.893Z,9.57
2022-11-24T12:55:20.950Z,9.92
2022-11-24T12:57:59.805Z,9.80
2022-11-24T13:00:36.048Z,9.66
2022-11-24T13:03:25.323Z,10.03
2022-11-24T13:05:58.925Z,10.01
2022-11-24T13:08:29.226Z,9.90
2022-11-24T13:11:39.918Z,10.06
2022-11-24T13:14:14.997Z,10.09
2022-11-24T13:19:46.203Z,10.21
2022-11-24T13:22:18.062Z,10.15
2022-11-24T13:24:46.959Z,10.08
2022-11-24T13:27:44.685Z,10.04
2022-11-24T13:30:54.314Z,10.10
2022-11-24T13:33:34.340Z,10.29
2022-11-24T13:36:32.361Z,10.05
2022-11-24T13:39:02.803Z,10.01
2022-11-24T13:42:08.706Z,10.34
2022-11-24T13:44:56.934Z,10.51
2022-11-24T13:47:41.453Z,10.31
2022-11-24T13:50:25.770Z,10.16
2022-11-24T13:53:07.427Z,10.30
2022-11-24T13:55:39.815Z,10.41
2022-11-24T13:58:36.796Z,10.34
2022-11-24T14:01:14.273Z,10.33
2022-11-24T14:04:33.248Z,10.35
2022-11-24T14:09:55.733Z,10.08
2022-11-24T14:12:26.791Z,10.00
2022-11-24T14:15:13.849Z,10.00
2022-11-24T14:17:42.615Z,9.93
2022-11-24T14:20:23.415Z,9.86
2022-11-24T14:22:52.472Z,10.13
2022-11-24T14:25:31.554Z,9.77
2022-11-24T14:28:01.263Z,9.62
2022-11-24T14:30:30.306Z,9.33
2022-11-24T14:33:01.178Z,9.28
2022-11-24T14:35:31.366Z,9.39
2022-11-24T14:38:00.950Z,9.20
2022-11-24T14:40:42.952Z,9.02
2022-11-24T14:43:24.620Z,9.20
2022-11-24T14:45:56.041Z,9.27
2022-11-24T14:48:28.260Z,9.18
2022-11-24T14:51:08.784Z,9.36
2022-11-24T14:53:41.782Z,9.76
2022-11-24T14:56:24.046Z,10.06
2022-11-24T14:58:52.900Z,10.57
2022-11-24T15:01:30.115Z,10.54
2022-11-24T15:07:18.049Z,10.52
2022-11-24T15:09:51.902Z,10.25
2022-11-24T15:12:29.231Z,10.20
2022-11-24T15:15:01.438Z,10.12
2022-11-24T15:17:31.100Z,10.09
2022-11-24T15:20:04.098Z,10.34
2022-11-24T15:22:41.371Z,10.21
2022-11-24T15:25:31.042Z,10.03
2022-11-24T15:28:01.504Z,10.00
2022-11-24T15:30:30.962Z,10.19
2022-11-24T15:33:00.572Z,10.14
2022-11-24T15:35:32.518Z,10.51
2022-11-24T15:38:01.036Z,11.03
2022-11-24T15:40:30.161Z,11.22
2022-11-24T15:43:06.135Z,11.47
2022-11-24T15:45:35.535Z,11.78
2022-11-24T15:48:03.996Z,11.98
2022-11-24T15:50:32.932Z,12.17
2022-11-24T15:53:01.695Z,12.17
2022-11-24T15:55:30.498Z,12.28
2022-11-24T15:58:00.360Z,12.46
2022-11-24T16:00:29.069Z,12.55
2022-11-24T16:02:57.809Z,12.77
2022-11-24T16:05:26.689Z,12.75
2022-11-24T16:07:55.209Z,12.96
2022-11-24T16:10:27.432Z,12.97
2022-11-24T16:12:56.007Z,13.16
2022-11-24T16:15:26.132Z,13.07
2022-11-24T16:17:54.745Z,13.11
2022-11-24T16:20:24.042Z,12.91
2022-11-24T16:22:52.454Z,12.81
2022-11-24T16:25:21.460Z,13.06
2022-11-24T16:27:49.903Z,12.35
2022-11-24T16:30:19.000Z,12.14
2022-11-24T16:32:48.950Z,12.50
2022-11-24T16:35:17.849Z,12.56
2022-11-24T16:37:46.270Z,12.19
2022-11-24T16:40:15.342Z,12.22
2022-11-24T16:42:43.819Z,12.43
2022-11-24T16:45:13.832Z,11.95
2022-11-24T16:47:43.448Z,11.51
2022-11-24T16:50:13.908Z,12.02
2022-11-24T16:52:42.419Z,11.89
2022-11-24T16:55:12.409Z,11.69
2022-11-24T16:57:40.795Z,11.92
2022-11-24T17:00:10.833Z,11.54
2022-11-24T17:02:40.171Z,11.23
2022-11-24T17:05:10.056Z,11.54
2022-11-24T17:07:40.015Z,11.80
2022-11-24T17:10:09.665Z,11.37
2022-11-24T17:12:38.234Z,11.37
2022-11-24T17:15:31.960Z,11.22
2022-11-24T17:18:22.954Z,11.81
2022-11-24T17:20:45.170Z,11.19
2022-11-24T17:23:15.633Z,11.42
2022-11-24T17:25:44.841Z,11.06
2022-11-24T17:28:13.327Z,10.99
2022-11-24T17:30:42.175Z,11.35
2022-11-24T17:33:10.761Z,11.42
2022-11-24T17:35:39.534Z,11.32
2022-11-24T17:38:08.265Z,11.61
2022-11-24T17:40:38.418Z,11.82
2022-11-24T17:43:06.887Z,11.91
2022-11-24T17:45:35.713Z,12.01
2022-11-24T17:48:04.260Z,12.31
2022-11-24T17:50:32.955Z,12.27
2022-11-24T17:53:01.497Z,12.36
2022-11-24T17:55:30.334Z,12.16
2022-11-24T17:58:00.353Z,12.11
2022-11-24T18:00:29.188Z,12.01
2022-11-24T18:02:57.848Z,11.77
2022-11-24T18:05:26.723Z,11.96
2022-11-24T18:07:55.240Z,12.11
2022-11-24T18:10:24.109Z,12.28
2022-11-24T18:12:52.783Z,11.98
2022-11-24T18:15:23.278Z,11.95
2022-11-24T18:17:53.155Z,12.13
2022-11-24T18:20:22.721Z,11.88
2022-11-24T18:23:04.989Z,11.69
2022-11-24T18:25:37.199Z,11.46
2022-11-24T18:28:05.908Z,11.64
2022-11-24T18:30:36.123Z,11.66
2022-11-24T18:33:04.659Z,11.45
2022-11-24T18:35:33.260Z,11.25
2022-11-24T18:38:01.723Z,11.12
2022-11-24T18:40:30.406Z,10.95
2022-11-24T18:42:59.094Z,11.10
2022-11-24T18:45:28.032Z,10.76
2022-11-24T18:47:57.913Z,10.30
2022-11-24T18:50:26.589Z,10.38
2022-11-24T18:52:55.025Z,10.53
2022-11-24T18:55:23.790Z,10.45
2022-11-24T18:57:52.150Z,10.39
2022-11-24T19:00:21.126Z,10.35
2022-11-24T19:02:51.898Z,10.28
2022-11-24T19:05:22.371Z,10.30
2022-11-24T19:07:50.858Z,10.30
2022-11-24T19:10:19.767Z,10.35
2022-11-24T19:12:48.199Z,10.22
2022-11-24T19:15:17.033Z,10.25
2022-11-24T19:17:47.412Z,10.03
2022-11-24T19:20:16.605Z,10.13
2022-11-24T19:22:46.768Z,10.44
2022-11-24T19:25:15.660Z,10.56
2022-11-24T19:27:44.269Z,10.61
2022-11-24T19:30:13.558Z,10.17
2022-11-24T19:32:42.158Z,10.06
2022-11-24T19:35:11.336Z,9.79
2022-11-24T19:37:39.783Z,9.87
2022-11-24T19:40:11.417Z,9.74
2022-11-24T19:42:39.869Z,9.89
2022-11-24T19:45:09.671Z,9.50
2022-11-24T19:47:39.110Z,9.49
2022-11-24T19:50:10.593Z,9.46
2022-11-24T19:52:41.133Z,9.27
2022-11-24T19:55:14.200Z,9.13
2022-11-24T19:57:44.255Z,9.24
2022-11-24T20:00:15.884Z,9.16
2022-11-24T20:02:46.408Z,9.04
2022-11-24T20:05:17.129Z,9.14
2022-11-24T20:07:45.673Z,9.24
2022-11-24T20:10:16.148Z,9.17
2022-11-24T20:12:45.094Z,9.08
2022-11-24T20:15:14.606Z,9.44
2022-11-24T20:17:43.818Z,9.44
2022-11-24T20:20:13.904Z,9.49
2022-11-24T20:22:42.665Z,9.74
2022-11-24T20:25:12.259Z,9.95
2022-11-24T20:27:42.321Z,9.65
2022-11-24T20:30:12.210Z,9.81
2022-11-24T20:32:40.600Z,9.85
2022-11-24T20:35:15.003Z,9.68
2022-11-24T20:37:46.325Z,9.41
2022-11-24T20:40:15.375Z,9.57
2022-11-24T20:42:48.079Z,9.62
2022-11-24T20:45:18.231Z,10.23
2022-11-24T20:47:47.112Z,10.55
2022-11-24T20:50:15.869Z,10.82
2022-11-24T20:52:44.338Z,10.79
2022-11-24T20:55:13.126Z,11.02
2022-11-24T20:57:41.995Z,11.09
2022-11-24T21:00:13.836Z,11.50
2022-11-24T21:02:42.385Z,11.76
2022-11-24T21:05:11.581Z,11.69
2022-11-24T21:07:39.970Z,11.77
2022-11-24T21:10:09.568Z,11.86
2022-11-24T21:12:37.977Z,11.96
2022-11-24T21:15:07.799Z,11.97
2022-11-24T21:17:37.735Z,12.08
2022-11-24T21:20:07.863Z,12.23
2022-11-24T21:22:36.427Z,12.32
2022-11-24T21:25:05.455Z,12.47
2022-11-24T21:27:33.868Z,12.59
2022-11-24T21:30:02.666Z,12.53
2022-11-24T21:32:32.259Z,12.45
2022-11-24T21:35:02.398Z,12.59
2022-11-24T21:37:30.823Z,12.43
2022-11-24T21:39:59.638Z,12.65
2022-11-24T21:42:28.172Z,12.78
2022-11-24T21:45:00.615Z,12.49
2022-11-24T21:47:29.541Z,12.52
2022-11-24T21:49:58.476Z,12.72
2022-11-24T21:52:28.656Z,11.94
2022-11-24T21:54:57.581Z,12.17
2022-11-24T21:57:26.038Z,12.18
2022-11-24T21:59:54.894Z,12.33
2022-11-24T22:02:23.361Z,12.24
2022-11-24T22:04:52.165Z,12.09
2022-11-24T22:07:20.809Z,11.53
2022-11-24T22:09:50.875Z,11.84
2022-11-24T22:12:19.222Z,12.24
2022-11-24T22:14:47.899Z,12.25
2022-11-24T22:17:16.518Z,11.75
2022-11-24T22:19:45.307Z,12.18
2022-11-24T22:22:13.837Z,12.23
2022-11-24T22:24:42.720Z,12.21
2022-11-24T22:27:12.805Z,12.09
2022-11-24T22:29:41.549Z,11.61
2022-11-24T22:32:10.156Z,11.92
2022-11-24T22:34:38.857Z,12.23
2022-11-24T22:37:07.240Z,12.38
2022-11-24T22:39:36.048Z,12.52
2022-11-24T22:42:04.666Z,12.40
2022-11-24T22:44:34.914Z,12.59
2022-11-24T22:47:03.730Z,12.23
2022-11-24T22:49:32.453Z,12.08
2022-11-24T22:52:00.958Z,12.00
2022-11-24T22:54:29.672Z,12.13
2022-11-24T22:56:58.107Z,12.33
2022-11-24T22:59:27.011Z,12.29
2022-11-24T23:01:56.824Z,12.30
2022-11-24T23:04:25.699Z,12.36
2022-11-24T23:06:54.176Z,12.52
2022-11-24T23:09:22.927Z,12.47
2022-11-24T23:11:51.371Z,12.36
2022-11-24T23:14:20.261Z,12.56
2022-11-24T23:16:48.848Z,12.13
2022-11-24T23:19:19.044Z,12.43
2022-11-24T23:21:47.477Z,12.54
2022-11-24T23:24:16.198Z,12.66
2022-11-24T23:26:44.673Z,12.47
2022-11-24T23:29:13.572Z,12.50
2022-11-24T23:31:42.126Z,12.46
2022-11-24T23:34:11.358Z,12.29
2022-11-24T23:36:41.271Z,11.85
2022-11-24T23:39:14.250Z,11.95
2022-11-24T23:41:42.708Z,11.24
2022-11-24T23:44:11.382Z,10.76
2022-11-24T23:46:39.902Z,10.44
2022-11-24T23:49:08.669Z,10.35
2022-11-24T23:51:41.528Z,10.41
2022-11-24T23:54:11.844Z,10.15
2022-11-24T23:56:40.330Z,10.45
2022-11-24T23:59:11.714Z,10.22
